Time;durP1;ratioP1;P1;durP2;ratioP2;P2;SDS_P1;SDS_P2;PMS_P1;PMS_P2;Temp;Humidity;BMP_temperature;BMP_pressure;BME280_temperature;BME280_humidity;BME280_pressure;Samples;Min_cycle;Max_cycle;Signal;HPM_P1;HPM_P2
2021/07/10 00:00:13;;;;;;;8.65;5.70;;;;;;;22.40;55.51;99536.28;5093728;28;20070;-71
2021/07/10 00:02:40;;;;;;;17.80;5.60;;;;;;;22.36;55.67;99530.72;5093642;28;20071;-70
2021/07/10 00:05:06;;;;;;;10.70;5.40;;;;;;;22.36;55.27;99529.91;5110588;28;20051;-70
2021/07/10 00:07:33;;;;;;;9.77;5.47;;;;;;;22.39;54.99;99529.28;5076651;28;20039;-70
2021/07/10 00:10:09;;;;;;;10.35;5.22;;;;;;;22.39;54.94;99524.69;5110574;28;20055;-70
2021/07/10 00:12:35;;;;;;;6.85;5.00;;;;;;;22.42;54.76;99529.47;5111738;28;20501;-70
2021/07/10 00:15:01;;;;;;;9.18;5.20;;;;;;;22.44;54.42;99532.66;5110434;28;20039;-70
2021/07/10 00:17:27;;;;;;;7.07;4.93;;;;;;;22.43;54.92;99532.97;5110190;28;20054;-70
2021/07/10 00:19:53;;;;;;;7.75;5.40;;;;;;;22.42;55.08;99531.38;5076585;28;20050;-70
2021/07/10 00:22:19;;;;;;;8.50;5.20;;;;;;;22.39;55.16;99532.00;5110243;28;20063;-70
2021/07/10 00:24:46;;;;;;;6.05;5.45;;;;;;;22.30;55.23;99528.47;5111567;28;20051;-70
2021/07/10 00:27:12;;;;;;;7.15;5.45;;;;;;;22.26;55.84;99527.47;5110551;28;20510;-70
2021/07/10 00:29:38;;;;;;;6.68;5.28;;;;;;;22.19;55.96;99534.13;5110522;28;20115;-70
2021/07/10 00:32:04;;;;;;;10.80;5.35;;;;;;;22.16;55.81;99531.22;5111742;28;20043;-70
2021/07/10 00:34:30;;;;;;;5.85;5.25;;;;;;;22.14;55.85;99542.31;5110201;28;20039;-70
2021/07/10 00:36:56;;;;;;;7.22;5.55;;;;;;;22.09;56.22;99530.88;5110354;28;20039;-69
2021/07/10 00:39:22;;;;;;;6.50;5.43;;;;;;;22.12;55.92;99535.66;5093325;28;20043;-71
2021/07/10 00:41:47;;;;;;;7.57;5.68;;;;;;;22.10;56.00;99530.56;5110409;28;20055;-69
2021/07/10 00:44:13;;;;;;;8.57;5.75;;;;;;;22.10;56.24;99533.28;5111663;28;20122;-69
2021/07/10 00:46:42;;;;;;;8.23;5.25;;;;;;;22.13;55.88;99542.66;5093580;28;20336;-68
2021/07/10 00:49:08;;;;;;;12.25;5.93;;;;;;;22.11;56.05;99540.25;5111472;28;20050;-70
2021/07/10 00:51:34;;;;;;;7.85;5.80;;;;;;;22.10;56.20;99540.56;5110243;28;20047;-70
2021/07/10 00:54:00;;;;;;;9.60;5.50;;;;;;;22.05;56.54;99541.50;5111379;28;20525;-70
2021/07/10 00:56:26;;;;;;;11.25;6.00;;;;;;;21.99;57.40;99534.63;5110172;28;20050;-69
2021/07/10 00:58:52;;;;;;;12.88;6.97;;;;;;;21.93;57.64;99541.28;5106065;28;20036;-70
2021/07/10 01:01:18;;;;;;;11.73;7.03;;;;;;;21.83;57.95;99536.94;5110079;28;20035;-70
2021/07/10 01:03:45;;;;;;;11.02;6.50;;;;;;;21.80;57.82;99537.56;5110124;28;20124;-70
2021/07/10 01:06:13;;;;;;;12.88;6.82;;;;;;;21.78;57.80;99537.84;5109956;28;20046;-70
2021/07/10 01:08:41;;;;;;;16.08;7.43;;;;;;;21.80;57.97;99536.75;5110289;28;20044;-70
2021/07/10 01:11:09;;;;;;;17.02;7.53;;;;;;;21.83;58.28;99536.94;5111308;28;20500;-70
2021/07/10 01:13:34;;;;;;;15.40;7.60;;;;;;;22.00;57.82;99541.63;5110183;28;20462;-70
2021/07/10 01:16:01;;;;;;;13.73;6.30;;;;;;;22.14;56.93;99545.03;5093062;28;20062;-70
2021/07/10 01:18:27;;;;;;;10.98;6.47;;;;;;;22.27;57.05;99545.31;5093127;28;20160;-71
2021/07/10 01:20:53;;;;;;;8.18;5.78;;;;;;;22.52;56.13;99544.59;5110044;28;20506;-70
2021/07/10 01:23:23;;;;;;;14.82;6.05;;;;;;;22.73;55.47;99544.00;5109968;28;20056;-71
2021/07/10 01:25:50;;;;;;;11.60;6.00;;;;;;;22.90;54.86;99544.03;5092893;28;20453;-70
2021/07/10 01:28:18;;;;;;;11.95;6.00;;;;;;;23.07;53.81;99549.50;5111426;28;20051;-70
2021/07/10 01:30:46;;;;;;;8.25;6.25;;;;;;;23.24;54.05;99545.25;5113189;28;20070;-71
2021/07/10 01:33:12;;;;;;;12.48;7.30;;;;;;;23.41;53.59;99547.13;5113614;28;20357;-71
2021/07/10 01:35:38;;;;;;;15.20;7.90;;;;;;;23.55;52.61;99553.16;5096768;28;20035;-70
2021/07/10 01:38:06;;;;;;;13.23;8.65;;;;;;;23.67;52.41;99542.50;5096571;28;20134;-71
2021/07/10 01:40:32;;;;;;;14.07;8.90;;;;;;;23.89;52.00;99543.47;5114904;28;20386;-70
2021/07/10 01:43:03;;;;;;;16.35;10.73;;;;;;;24.10;51.19;99544.34;5114790;28;20527;-70
2021/07/10 01:45:31;;;;;;;26.65;16.08;;;;;;;24.37;50.63;99542.34;5113313;28;20043;-71
2021/07/10 01:47:57;;;;;;;13.82;8.48;;;;;;;24.59;49.41;99544.00;5113306;28;20043;-70
2021/07/10 01:50:23;;;;;;;12.35;7.10;;;;;;;24.86;48.76;99538.13;5113259;28;20080;-70
2021/07/10 01:52:49;;;;;;;22.10;12.75;;;;;;;25.08;48.13;99538.91;5096298;28;20548;-69
2021/07/10 01:55:15;;;;;;;11.23;6.55;;;;;;;25.36;47.85;99547.34;5114465;28;20127;-70
2021/07/10 01:57:43;;;;;;;24.15;14.38;;;;;;;25.62;47.21;99541.69;5114214;28;20051;-70
2021/07/10 02:00:21;;;;;;;13.05;8.32;;;;;;;25.91;46.43;99545.41;5112886;28;20416;-70
2021/07/10 02:02:48;;;;;;;16.17;6.60;;;;;;;26.18;46.00;99539.38;5095762;28;20074;-69
2021/07/10 02:05:18;;;;;;;12.98;7.32;;;;;;;26.49;44.94;99543.44;5095843;28;20069;-70
2021/07/10 02:07:45;;;;;;;8.10;5.72;;;;;;;26.78;44.32;99537.00;5114356;28;20044;-70
2021/07/10 02:10:12;;;;;;;10.30;6.40;;;;;;;26.97;43.56;99533.69;5112972;28;20130;-72
2021/07/10 02:12:43;;;;;;;10.82;6.13;;;;;;;27.15;43.18;99539.69;5112687;28;20142;-71
2021/07/10 02:15:10;;;;;;;14.40;8.27;;;;;;;27.37;42.77;99541.09;5112737;28;20031;-70
2021/07/10 02:17:36;;;;;;;8.00;6.43;;;;;;;27.50;42.60;99541.81;5114210;28;20044;-70
2021/07/10 02:20:05;;;;;;;7.57;5.38;;;;;;;27.70;42.32;99534.59;5095571;28;20035;-70
2021/07/10 02:22:31;;;;;;;8.55;6.40;;;;;;;27.90;41.69;99527.38;5113950;28;20096;-70
2021/07/10 02:24:57;;;;;;;6.50;5.85;;;;;;;28.14;41.81;99538.09;5113675;28;20051;-70
2021/07/10 02:27:22;;;;;;;8.02;6.90;;;;;;;28.34;41.14;99536.25;5095322;28;20139;-71
2021/07/10 02:29:48;;;;;;;9.02;6.97;;;;;;;28.53;40.69;99530.09;5112594;28;20040;-70
2021/07/10 02:32:14;;;;;;;10.30;6.57;;;;;;;28.68;40.13;99529.28;5113859;28;20039;-70
2021/07/10 02:34:40;;;;;;;7.40;5.82;;;;;;;28.75;39.86;99526.72;5112324;28;20409;-70
2021/07/10 02:37:05;;;;;;;8.73;5.32;;;;;;;28.87;40.07;99531.25;5112074;28;20081;-70
2021/07/10 02:39:31;;;;;;;5.78;4.93;;;;;;;28.58;40.45;99531.75;5095256;28;20181;-71
2021/07/10 02:41:57;;;;;;;12.23;5.38;;;;;;;28.11;41.65;99532.56;5113036;28;20046;-70
2021/07/10 02:44:23;;;;;;;7.28;5.40;;;;;;;27.71;43.02;99534.25;5113475;28;20526;-69
2021/07/10 02:46:49;;;;;;;10.57;6.28;;;;;;;27.44;43.32;99541.28;5113533;28;20495;-70
2021/07/10 02:49:15;;;;;;;8.98;5.20;;;;;;;27.12;44.01;99527.53;5113525;28;20114;-70
2021/07/10 02:51:40;;;;;;;9.90;6.03;;;;;;;26.89;44.42;99532.69;5112009;28;20141;-70
2021/07/10 02:54:07;;;;;;;10.93;6.38;;;;;;;27.12;43.72;99540.31;5111884;28;20032;-70
2021/07/10 02:56:32;;;;;;;10.70;7.78;;;;;;;27.68;42.83;99534.94;5095050;28;20051;-70
2021/07/10 02:58:58;;;;;;;14.43;8.35;;;;;;;28.14;42.05;99529.13;5113316;28;20040;-70
2021/07/10 03:01:24;;;;;;;14.30;8.30;;;;;;;28.49;40.67;99521.03;5111623;28;20084;-71
2021/07/10 03:03:50;;;;;;;13.98;9.98;;;;;;;28.72;40.25;99521.97;5112927;28;20059;-71
2021/07/10 03:06:17;;;;;;;12.63;9.27;;;;;;;28.46;41.21;99529.94;5111635;28;20039;-71
2021/07/10 03:08:44;;;;;;;13.10;7.25;;;;;;;27.90;41.98;99516.47;5094892;28;20039;-70
2021/07/10 03:11:12;;;;;;;12.60;7.35;;;;;;;27.47;43.23;99518.81;5111636;28;20050;-70
2021/07/10 03:13:38;;;;;;;9.35;6.97;;;;;;;27.09;43.86;99525.50;5113208;28;20160;-70
2021/07/10 03:16:04;;;;;;;13.05;6.90;;;;;;;26.79;44.84;99524.19;5111683;28;20055;-70
2021/07/10 03:18:30;;;;;;;12.00;7.78;;;;;;;26.62;45.37;99530.66;5112635;28;20127;-70
2021/07/10 03:20:56;;;;;;;14.40;10.43;;;;;;;26.41;46.16;99528.03;5094517;28;20045;-70
2021/07/10 03:23:22;;;;;;;18.30;13.02;;;;;;;26.28;46.13;99528.03;5094546;28;20050;-70
2021/07/10 03:25:48;;;;;;;19.77;11.73;;;;;;;26.25;46.13;99522.50;5111297;28;20047;-70
2021/07/10 03:28:14;;;;;;;17.13;11.10;;;;;;;26.21;46.11;99522.41;5094299;28;20044;-70
2021/07/10 03:30:41;;;;;;;14.85;10.07;;;;;;;26.21;46.26;99525.09;5077362;28;20054;-69
2021/07/10 03:33:07;;;;;;;17.15;10.93;;;;;;;26.18;46.31;99519.56;5112704;28;20097;-70
2021/07/10 03:35:32;;;;;;;15.15;11.38;;;;;;;26.16;46.21;99519.91;5094156;28;20043;-70
2021/07/10 03:37:58;;;;;;;14.48;10.95;;;;;;;26.07;46.83;99515.69;5112514;28;20079;-70
2021/07/10 03:40:26;;;;;;;11.15;8.10;;;;;;;26.06;46.34;99520.34;5112618;28;20047;-70
2021/07/10 03:42:52;;;;;;;12.32;8.25;;;;;;;26.05;46.42;99519.53;5111162;28;20043;-71
2021/07/10 03:45:18;;;;;;;12.60;8.20;;;;;;;26.01;46.89;99517.84;5111182;28;20047;-69
2021/07/10 03:47:44;;;;;;;10.65;7.72;;;;;;;26.00;47.01;99522.47;5110979;28;20189;-70
2021/07/10 03:50:12;;;;;;;11.63;6.85;;;;;;;25.97;47.26;99516.91;5112405;28;20043;-70
2021/07/10 03:52:40;;;;;;;8.60;7.10;;;;;;;25.97;47.15;99516.91;5111555;28;20039;-69
2021/07/10 03:55:07;;;;;;;9.55;6.43;;;;;;;26.16;47.02;99505.53;5112069;28;20039;-70
2021/07/10 03:57:34;;;;;;;9.00;6.47;;;;;;;26.70;46.45;99511.50;5112049;28;20044;-71
2021/07/10 04:00:00;;;;;;;10.90;6.20;;;;;;;27.39;45.44;99511.59;5093455;28;20534;-71
2021/07/10 04:02:26;;;;;;;9.77;5.80;;;;;;;28.06;43.80;99518.06;5093320;28;20051;-70
2021/07/10 04:04:52;;;;;;;8.30;6.43;;;;;;;28.52;43.07;99512.94;5111648;28;20096;-70
2021/07/10 04:07:18;;;;;;;9.50;6.18;;;;;;;28.83;42.25;99507.78;5110412;28;20047;-70
2021/07/10 04:09:44;;;;;;;9.93;5.88;;;;;;;29.10;41.85;99515.00;5112208;28;20454;-70
2021/07/10 04:12:10;;;;;;;9.75;6.05;;;;;;;29.36;41.44;99502.66;5110484;28;20046;-70
2021/07/10 04:14:36;;;;;;;11.38;6.53;;;;;;;29.53;40.77;99498.66;5110525;28;20043;-70
2021/07/10 04:17:05;;;;;;;11.65;6.05;;;;;;;29.76;40.18;99502.25;5111848;28;20524;-71
2021/07/10 04:19:31;;;;;;;9.47;5.80;;;;;;;29.90;39.64;99503.66;5093126;28;20134;-70
2021/07/10 04:21:56;;;;;;;11.20;6.50;;;;;;;30.06;39.20;99512.50;5076582;28;20044;-70
2021/07/10 04:24:22;;;;;;;12.23;6.32;;;;;;;30.24;39.05;99510.91;5111531;28;20554;-71
2021/07/10 04:26:48;;;;;;;14.60;7.47;;;;;;;30.42;38.97;99510.38;5110299;28;20132;-71
2021/07/10 04:29:14;;;;;;;12.55;5.65;;;;;;;30.62;38.10;99502.84;5093554;28;20058;-70
2021/07/10 04:31:40;;;;;;;13.07;5.63;;;;;;;30.68;38.42;99506.84;5093610;28;20036;-70
2021/07/10 04:34:06;;;;;;;12.70;6.47;;;;;;;30.69;38.61;99503.75;5110340;28;20043;-70
2021/07/10 04:36:32;;;;;;;14.90;6.65;;;;;;;30.61;39.15;99501.28;5076480;28;20035;-71
2021/07/10 04:38:58;;;;;;;17.92;6.47;;;;;;;30.80;38.82;99501.19;5110123;28;20058;-71
2021/07/10 04:41:24;;;;;;;15.10;6.47;;;;;;;31.01;38.45;99508.88;5111617;28;20089;-70
2021/07/10 04:43:50;;;;;;;12.90;6.07;;;;;;;31.20;38.13;99503.22;5111726;28;20036;-72
2021/07/10 04:46:15;;;;;;;12.25;6.57;;;;;;;31.39;37.92;99499.59;5111623;28;20096;-71
2021/07/10 04:48:41;;;;;;;11.13;6.10;;;;;;;31.48;38.21;99493.03;5093446;28;20445;-71
2021/07/10 04:51:09;;;;;;;9.88;5.07;;;;;;;31.51;37.17;99497.75;5093232;28;20039;-70
2021/07/10 04:53:35;;;;;;;13.05;5.78;;;;;;;31.54;36.64;99488.78;5110340;28;20047;-71
2021/07/10 04:56:01;;;;;;;10.65;5.78;;;;;;;31.57;36.51;99493.50;5110410;28;20082;-71
2021/07/10 04:58:27;;;;;;;7.13;5.38;;;;;;;31.64;36.47;99496.31;5111851;28;20465;-71
2021/07/10 05:00:53;;;;;;;5.93;5.30;;;;;;;31.76;36.60;99497.97;5111733;28;20035;-71
2021/07/10 05:03:18;;;;;;;7.60;5.68;;;;;;;31.38;37.48;99492.50;5111345;28;20544;-71
2021/07/10 05:05:45;;;;;;;11.65;6.22;;;;;;;31.46;37.31;99493.38;5113916;28;20107;-71
2021/07/10 05:08:10;;;;;;;11.23;5.95;;;;;;;31.69;37.82;99490.47;5097217;28;20043;-70
2021/07/10 05:10:37;;;;;;;8.98;5.43;;;;;;;31.79;37.32;99500.75;5115320;28;20036;-71
2021/07/10 05:13:04;;;;;;;9.63;6.40;;;;;;;31.81;36.72;99495.69;5114022;28;20048;-72
2021/07/10 05:15:29;;;;;;;10.15;5.63;;;;;;;31.47;37.56;99492.22;5113907;28;20122;-72
2021/07/10 05:17:55;;;;;;;9.50;5.10;;;;;;;31.04;39.31;99488.19;5113927;28;20515;-71
2021/07/10 05:20:21;;;;;;;8.07;5.65;;;;;;;30.94;39.54;99495.91;5113732;28;20044;-71
2021/07/10 05:22:47;;;;;;;8.60;5.35;;;;;;;31.12;39.37;99500.78;5079598;28;20488;-72
2021/07/10 05:25:13;;;;;;;7.47;5.88;;;;;;;31.06;40.26;99499.53;5096361;28;20043;-72
2021/07/10 05:27:39;;;;;;;12.70;6.43;;;;;;;30.87;40.32;99495.78;5113294;28;20083;-72
2021/07/10 05:30:08;;;;;;;9.95;6.53;;;;;;;30.68;40.26;99491.22;5114854;28;20032;-71
2021/07/10 05:32:34;;;;;;;8.32;6.53;;;;;;;30.60;40.60;99486.03;5115063;28;20043;-71
2021/07/10 05:35:00;;;;;;;7.88;6.07;;;;;;;30.47;41.81;99485.44;5114605;28;20412;-72
2021/07/10 05:37:26;;;;;;;11.85;5.72;;;;;;;30.46;41.10;99484.66;5114914;28;20065;-72
2021/07/10 05:39:52;;;;;;;9.25;6.60;;;;;;;30.41;41.47;99484.19;5106755;28;20071;-69
2021/07/10 05:42:18;;;;;;;12.00;8.02;;;;;;;30.27;41.28;99482.03;5095850;28;20140;-71
2021/07/10 05:44:44;;;;;;;12.35;8.52;;;;;;;30.16;41.02;99483.78;5112973;28;20544;-71
2021/07/10 05:47:10;;;;;;;14.55;9.15;;;;;;;30.04;41.20;99484.75;5113171;28;20066;-71
2021/07/10 05:49:36;;;;;;;12.57;8.20;;;;;;;29.95;41.75;99476.03;5112786;28;20416;-73
2021/07/10 05:52:04;;;;;;;10.75;7.72;;;;;;;29.86;41.31;99471.59;5079450;28;20096;-71
2021/07/10 05:54:30;;;;;;;9.48;7.13;;;;;;;29.85;41.08;99477.41;5112820;28;20126;-71
2021/07/10 05:57:00;;;;;;;15.40;7.53;;;;;;;29.75;41.08;99475.31;5079008;28;20131;-75
2021/07/10 05:59:26;;;;;;;14.25;7.95;;;;;;;29.79;42.06;99470.69;5095698;28;20115;-72
2021/07/10 06:01:52;;;;;;;16.27;8.82;;;;;;;29.74;42.32;99471.78;5078886;28;20055;-71
2021/07/10 06:04:19;;;;;;;18.42;9.48;;;;;;;29.74;42.26;99468.25;5113527;28;20514;-71
2021/07/10 06:06:45;;;;;;;10.95;8.13;;;;;;;29.72;43.23;99473.28;5113820;28;20047;-69
2021/07/10 06:09:10;;;;;;;12.80;8.10;;;;;;;29.71;43.75;99469.78;5112032;28;20043;-69
2021/07/10 06:11:36;;;;;;;10.93;8.27;;;;;;;29.68;43.90;99475.16;5113556;28;20431;-69
2021/07/10 06:14:08;;;;;;;12.75;8.48;;;;;;;29.64;44.97;99472.38;5112634;28;20431;-71
2021/07/10 06:16:35;;;;;;;11.88;8.77;;;;;;;29.61;44.35;99475.81;5095842;28;20481;-69
2021/07/10 06:19:02;;;;;;;12.38;8.30;;;;;;;29.64;44.74;99473.16;5095050;28;20092;-75
2021/07/10 06:21:27;;;;;;;13.38;8.05;;;;;;;29.64;45.03;99473.16;5112005;28;20039;-72
2021/07/10 06:23:55;;;;;;;10.95;8.00;;;;;;;29.67;45.18;99470.84;5113197;28;20040;-72
2021/07/10 06:26:21;;;;;;;9.48;8.15;;;;;;;29.67;44.34;99466.19;5111963;28;20059;-72
2021/07/10 06:28:49;;;;;;;11.90;7.70;;;;;;;29.68;45.07;99466.97;5094875;28;20236;-72
2021/07/10 06:31:17;;;;;;;9.52;7.63;;;;;;;29.72;45.09;99470.56;5112441;28;20126;-70
2021/07/10 06:33:43;;;;;;;10.30;7.20;;;;;;;29.74;43.67;99469.06;5111754;28;20459;-71
2021/07/10 06:36:10;;;;;;;9.27;6.88;;;;;;;29.77;42.51;99460.13;5113243;28;20423;-71
2021/07/10 06:38:37;;;;;;;8.82;6.30;;;;;;;29.78;41.07;99472.63;5094806;28;20124;-70
2021/07/10 06:41:03;;;;;;;11.07;7.00;;;;;;;29.80;40.42;99470.31;5094235;28;20385;-70
2021/07/10 06:43:29;;;;;;;12.32;7.05;;;;;;;29.84;40.89;99464.91;5112062;28;20058;-70
2021/07/10 06:45:54;;;;;;;11.60;6.35;;;;;;;29.85;41.04;99471.94;5113358;28;20492;-72
2021/07/10 06:48:20;;;;;;;8.48;5.97;;;;;;;29.82;40.33;99470.72;5111534;28;20043;-70
2021/07/10 06:50:46;;;;;;;8.18;5.60;;;;;;;29.84;38.44;99459.44;5077942;28;20046;-71
2021/07/10 06:53:13;;;;;;;8.43;5.57;;;;;;;29.92;37.48;99465.84;5113290;28;20133;-71
2021/07/10 06:55:39;;;;;;;8.55;5.20;;;;;;;29.93;37.83;99462.72;5111458;28;20040;-76
2021/07/10 06:58:05;;;;;;;8.20;5.72;;;;;;;30.00;39.36;99470.22;5094540;28;20055;-70
2021/07/10 07:00:31;;;;;;;10.30;5.97;;;;;;;30.03;39.54;99467.59;5112817;28;20099;-72
2021/07/10 07:02:57;;;;;;;8.77;6.10;;;;;;;30.06;38.80;99460.56;5094074;28;20167;-68
2021/07/10 07:05:23;;;;;;;8.98;5.80;;;;;;;30.08;38.66;99461.78;5094526;28;20036;-67
2021/07/10 07:07:48;;;;;;;6.60;5.65;;;;;;;30.08;38.25;99461.78;5111511;28;20073;-69
2021/07/10 07:10:15;;;;;;;8.77;6.00;;;;;;;30.05;38.59;99457.06;5093566;28;20051;-69
2021/07/10 07:12:41;;;;;;;7.10;5.70;;;;;;;30.11;38.35;99465.72;5112806;28;20051;-70
2021/07/10 07:15:08;;;;;;;9.88;5.82;;;;;;;30.14;37.89;99466.94;5112395;28;20039;-68
2021/07/10 07:17:34;;;;;;;8.43;5.72;;;;;;;30.15;37.79;99471.25;5111117;28;20527;-68
2021/07/10 07:20:01;;;;;;;7.88;6.18;;;;;;;30.20;37.88;99470.94;5112663;28;20043;-67
2021/07/10 07:22:26;;;;;;;8.38;6.13;;;;;;;30.22;37.85;99474.94;5112258;28;20042;-68
2021/07/10 07:24:52;;;;;;;8.85;6.18;;;;;;;30.18;37.24;99474.06;5092815;28;20040;-68
2021/07/10 07:27:18;;;;;;;9.00;6.07;;;;;;;30.19;37.75;99466.66;5111283;28;20511;-67
2021/07/10 07:29:44;;;;;;;6.10;5.60;;;;;;;30.27;37.27;99465.63;5111003;28;20054;-70
2021/07/10 07:32:10;;;;;;;8.48;5.72;;;;;;;30.35;37.96;99464.56;5112051;28;20040;-69
2021/07/10 07:34:35;;;;;;;9.80;6.38;;;;;;;30.30;38.36;99467.63;5077193;28;20039;-71
2021/07/10 07:37:01;;;;;;;7.40;6.03;;;;;;;30.39;38.23;99470.88;5110965;28;20043;-69
2021/07/10 07:39:27;;;;;;;10.65;6.70;;;;;;;30.47;37.25;99472.56;5093338;28;20154;-73
2021/07/10 07:41:53;;;;;;;9.43;6.13;;;;;;;30.47;36.94;99467.09;5093801;28;20564;-69
2021/07/10 07:44:19;;;;;;;7.30;6.30;;;;;;;30.56;36.64;99475.00;5093661;28;20035;-70
2021/07/10 07:46:45;;;;;;;7.45;5.97;;;;;;;30.54;36.69;99467.19;5111880;28;20134;-69
2021/07/10 07:49:11;;;;;;;7.88;7.10;;;;;;;30.55;37.41;99474.22;5093527;28;20043;-71
2021/07/10 07:51:37;;;;;;;7.70;6.50;;;;;;;30.66;37.09;99470.88;5110469;28;20046;-72
2021/07/10 07:54:04;;;;;;;6.95;6.25;;;;;;;30.67;37.01;99466.97;5109953;28;20126;-71
2021/07/10 07:56:29;;;;;;;7.18;6.47;;;;;;;30.69;37.19;99459.97;5111916;28;20049;-70
2021/07/10 07:58:55;;;;;;;13.45;7.13;;;;;;;30.78;36.86;99463.25;5112098;28;20130;-69
2021/07/10 08:01:21;;;;;;;9.38;6.70;;;;;;;30.95;36.44;99450.94;5112292;28;20129;-72
2021/07/10 08:03:50;;;;;;;8.50;6.53;;;;;;;31.04;36.49;99449.88;5110655;28;20063;-67
2021/07/10 08:06:16;;;;;;;7.70;6.43;;;;;;;31.17;36.88;99448.44;5093887;28;20049;-70
2021/07/10 08:08:43;;;;;;;8.73;6.50;;;;;;;31.34;36.22;99444.31;5077081;28;20492;-69
2021/07/10 08:11:10;;;;;;;8.13;6.68;;;;;;;31.49;36.09;99445.28;5112233;28;20088;-70
2021/07/10 08:13:39;;;;;;;9.02;6.85;;;;;;;31.39;35.62;99444.81;5093755;28;20084;-69
2021/07/10 08:16:09;;;;;;;9.77;6.60;;;;;;;31.37;35.71;99440.84;5077492;28;20035;-71
2021/07/10 08:18:36;;;;;;;7.75;6.70;;;;;;;31.45;36.08;99442.50;5110649;28;20044;-70
2021/07/10 08:21:03;;;;;;;8.80;6.70;;;;;;;31.40;35.86;99429.16;5093741;28;20077;-72
2021/07/10 08:23:29;;;;;;;7.78;7.10;;;;;;;31.44;36.09;99449.13;5093813;28;20411;-70
2021/07/10 08:25:55;;;;;;;8.60;6.78;;;;;;;31.41;35.95;99431.53;5110522;28;20047;-72
2021/07/10 08:28:21;;;;;;;6.65;6.13;;;;;;;31.51;36.61;99448.44;5110983;28;20051;-71
2021/07/10 08:30:48;;;;;;;8.10;7.05;;;;;;;31.42;35.21;99448.75;5109554;28;20039;-77
2021/07/10 08:33:14;;;;;;;8.13;6.55;;;;;;;31.49;35.46;99448.03;5076365;28;20054;-72
2021/07/10 08:35:40;;;;;;;9.15;7.35;;;;;;;31.51;35.48;99445.69;5111254;28;20031;-73
2021/07/10 08:38:06;;;;;;;10.65;6.85;;;;;;;31.50;35.33;99433.16;5111087;28;20078;-72
2021/07/10 08:40:32;;;;;;;7.63;6.90;;;;;;;31.44;34.80;99441.72;5113748;28;20047;-74
2021/07/10 08:42:59;;;;;;;9.07;6.40;;;;;;;31.53;34.16;99440.59;5114499;28;20051;-70
2021/07/10 08:45:30;;;;;;;10.48;6.30;;;;;;;31.63;33.88;99440.72;5113472;28;20137;-70
2021/07/10 08:47:57;;;;;;;7.43;6.80;;;;;;;31.77;33.77;99442.00;5097174;28;20048;-68
2021/07/10 08:50:23;;;;;;;8.18;6.93;;;;;;;31.95;32.75;99433.97;5114773;28;20036;-70
2021/07/10 08:52:50;;;;;;;10.82;7.22;;;;;;;31.95;33.07;99432.00;5113718;28;20051;-70
2021/07/10 08:55:17;;;;;;;8.00;7.30;;;;;;;31.98;32.88;99427.72;5113752;28;20046;-73
2021/07/10 08:57:43;;;;;;;7.95;7.25;;;;;;;31.88;33.24;99440.13;5097120;28;20043;-73
2021/07/10 09:00:12;;;;;;;8.27;6.13;;;;;;;31.94;33.25;99424.94;5096626;28;20047;-71
2021/07/10 09:02:44;;;;;;;8.68;6.53;;;;;;;31.88;33.68;99423.69;5113720;28;20062;-70
2021/07/10 09:05:11;;;;;;;9.75;6.38;;;;;;;31.83;33.50;99427.59;5096757;28;20051;-72
2021/07/10 09:08:20;;;;;;;7.90;6.90;;;;;;;31.73;33.62;99417.31;5113324;28;20566;-71
2021/07/10 09:11:00;;;;;;;7.40;6.70;;;;;;;31.49;34.33;99420.63;5062498;28;20058;-75
2021/07/10 09:13:33;;;;;;;7.82;6.78;;;;;;;31.53;33.98;99413.22;5114725;28;20070;-74
2021/07/10 09:16:02;;;;;;;10.43;7.40;;;;;;;31.57;34.06;99412.09;5114848;28;20043;-76
2021/07/10 09:18:42;;;;;;;7.47;6.75;;;;;;;31.63;33.96;99415.28;5115289;28;20070;-75
2021/07/10 09:21:10;;;;;;;8.32;6.85;;;;;;;31.73;34.36;99414.56;5113751;28;20465;-75
2021/07/10 09:23:39;;;;;;;7.63;6.97;;;;;;;31.78;34.00;99408.75;5112692;28;20067;-76
2021/07/10 09:26:21;;;;;;;8.48;6.82;;;;;;;31.87;34.00;99413.91;5113273;28;20039;-75
2021/07/10 09:29:01;;;;;;;7.50;6.78;;;;;;;32.03;34.70;99414.44;5113853;28;20056;-75
2021/07/10 09:31:30;;;;;;;9.27;7.25;;;;;;;32.25;31.82;99409.88;5096281;28;20055;-71
2021/07/10 09:34:04;;;;;;;10.57;7.47;;;;;;;32.15;32.22;99409.81;5096359;28;20032;-75
2021/07/10 09:36:32;;;;;;;8.10;7.30;;;;;;;31.87;33.80;99411.94;5113039;28;20067;-72
2021/07/10 09:38:58;;;;;;;7.15;6.45;;;;;;;31.76;34.71;99418.50;5113835;28;20048;-72
2021/07/10 09:41:30;;;;;;;14.38;7.40;;;;;;;31.73;35.08;99409.09;5112571;28;20164;-71
2021/07/10 09:44:15;;;;;;;7.95;7.15;;;;;;;31.57;34.56;99408.56;5113735;28;20093;-73
2021/07/10 09:46:42;;;;;;;10.48;7.53;;;;;;;31.53;34.30;99410.47;5112797;28;20429;-72
2021/07/10 09:49:30;;;;;;;11.23;7.68;;;;;;;31.49;33.83;99404.19;5112662;28;20051;-73
2021/07/10 09:51:58;;;;;;;11.25;6.78;;;;;;;31.65;33.85;99399.22;5111740;28;20130;-75
2021/07/10 09:54:28;;;;;;;12.23;7.35;;;;;;;31.75;34.15;99401.28;5095886;28;20713;-71
2021/07/10 09:57:11;;;;;;;8.02;7.22;;;;;;;32.04;33.24;99390.56;5113956;28;20052;-69
2021/07/10 09:59:43;;;;;;;7.68;6.97;;;;;;;32.18;33.63;99390.66;5095416;28;20044;-74
2021/07/10 10:02:15;;;;;;;9.82;7.40;;;;;;;32.19;33.93;99386.72;5113330;28;20048;-68
2021/07/10 10:04:42;;;;;;;7.82;7.03;;;;;;;32.03;33.62;99392.50;5112811;28;20043;-69
2021/07/10 10:07:13;;;;;;;8.20;7.13;;;;;;;31.82;33.42;99408.75;5094746;28;20043;-70
2021/07/10 10:09:39;;;;;;;8.65;7.90;;;;;;;31.56;32.75;99388.63;5113792;28;20031;-69
2021/07/10 10:12:17;;;;;;;8.10;7.30;;;;;;;31.44;33.10;99395.16;5089047;27;20397;-70
2021/07/10 10:14:52;;;;;;;10.65;7.65;;;;;;;31.38;33.02;99384.91;5088384;28;20040;-69
2021/07/10 10:17:23;;;;;;;8.10;7.15;;;;;;;31.56;33.05;99394.09;5087616;28;20048;-70
2021/07/10 10:19:49;;;;;;;8.70;7.90;;;;;;;31.67;34.34;99381.25;5086898;28;20090;-64
2021/07/10 10:22:16;;;;;;;8.27;7.47;;;;;;;31.84;34.33;99387.25;5086790;28;20045;-70
2021/07/10 10:24:48;;;;;;;8.40;7.68;;;;;;;31.86;34.17;99382.19;5069494;28;20048;-71
2021/07/10 10:27:16;;;;;;;8.57;7.68;;;;;;;31.90;33.97;99374.78;5070509;28;20044;-70
2021/07/10 10:29:42;;;;;;;8.27;7.47;;;;;;;31.95;33.46;99377.19;5069491;28;20069;-70
2021/07/10 10:32:08;;;;;;;10.02;7.78;;;;;;;31.85;33.14;99375.91;5087881;28;20048;-70
2021/07/10 10:34:37;;;;;;;8.15;7.38;;;;;;;31.66;33.91;99384.38;5070060;28;20052;-69
2021/07/10 10:37:04;;;;;;;8.98;7.50;;;;;;;31.37;33.11;99380.59;5086471;28;20042;-72
2021/07/10 10:39:34;;;;;;;10.60;7.00;;;;;;;31.16;33.13;99372.94;5087367;28;20048;-72
2021/07/10 10:42:08;;;;;;;8.68;7.82;;;;;;;31.04;33.34;99365.00;5086674;28;20094;-71
2021/07/10 10:44:41;;;;;;;8.32;7.53;;;;;;;31.00;33.27;99379.44;5086608;28;20046;-70
2021/07/10 10:47:09;;;;;;;11.10;7.82;;;;;;;31.13;33.77;99373.69;5087317;28;20098;-70
2021/07/10 10:49:39;;;;;;;7.90;7.10;;;;;;;31.34;33.62;99367.63;5068983;28;20118;-71
2021/07/10 10:52:56;;;;;;;10.82;8.13;;;;;;;31.53;34.83;99363.91;5086100;28;20418;-72
2021/07/10 10:55:28;;;;;;;8.30;7.30;;;;;;;31.64;32.74;99359.31;5087499;28;20048;-68
2021/07/10 10:57:59;;;;;;;9.00;7.47;;;;;;;31.74;33.64;99355.88;5087387;28;20135;-70
2021/07/10 11:00:35;;;;;;;8.85;7.93;;;;;;;31.79;32.07;99354.72;5069333;28;20090;-69
2021/07/10 11:03:08;;;;;;;10.10;7.38;;;;;;;31.79;32.22;99346.50;5052711;28;20040;-70
2021/07/10 11:05:35;;;;;;;11.38;8.00;;;;;;;31.74;32.39;99355.06;5087832;28;20048;-68
2021/07/10 11:08:25;;;;;;;8.40;7.50;;;;;;;31.70;33.14;99363.25;5086689;28;20505;-68
2021/07/10 11:10:57;;;;;;;8.80;7.85;;;;;;;31.62;34.00;99356.97;5086807;28;20433;-71
2021/07/10 11:13:37;;;;;;;9.05;7.75;;;;;;;31.45;33.79;99352.91;5087351;28;20040;-70
2021/07/10 11:16:23;;;;;;;9.25;8.20;;;;;;;31.36;33.68;99351.66;5086185;28;20063;-72
2021/07/10 11:19:08;;;;;;;8.65;7.75;;;;;;;31.48;33.87;99353.31;5085749;28;20044;-70
2021/07/10 11:21:48;;;;;;;8.93;8.00;;;;;;;31.56;33.21;99352.19;5084049;28;20047;-71
2021/07/10 11:26:56;;;;;;;10.13;9.13;;;;;;;31.70;33.03;99343.28;5072743;28;20154;-71
2021/07/10 11:29:25;;;;;;;8.95;8.13;;;;;;;31.79;33.43;99346.50;5073488;28;20131;-71
2021/07/10 11:31:54;;;;;;;8.45;7.63;;;;;;;31.84;33.87;99340.66;5073533;28;20102;-71
2021/07/10 11:34:34;;;;;;;9.43;8.52;;;;;;;31.83;34.41;99334.41;5071645;28;20044;-69